sensor_id;sensor_type;location;lat;lon;timestamp;pressure;altitude;pressure_sealevel;temperature;humidity
36664;BME280;53333;51.976;20.144;2023-02-10T00:01:01;101683.13;;;-0.15;49.39
36664;BME280;53333;51.976;20.144;2023-02-10T00:03:35;101683.06;;;-0.19;49.44
36664;BME280;53333;51.976;20.144;2023-02-10T00:06:09;101670.75;;;-0.21;49.42
36664;BME280;53333;51.976;20.144;2023-02-10T00:08:46;101665.44;;;-0.24;49.54
36664;BME280;53333;51.976;20.144;2023-02-10T00:11:20;101655.78;;;-0.27;49.55
36664;BME280;53333;51.976;20.144;2023-02-10T00:14:16;101667.94;;;-0.30;49.74
36664;BME280;53333;51.976;20.144;2023-02-10T00:16:51;101659.16;;;-0.32;49.73
36664;BME280;53333;51.976;20.144;2023-02-10T00:19:26;101658.22;;;-0.36;49.92
36664;BME280;53333;51.976;20.144;2023-02-10T00:22:00;101646.84;;;-0.37;49.88
36664;BME280;53333;51.976;20.144;2023-02-10T00:24:36;101649.69;;;-0.24;49.10
36664;BME280;53333;51.976;20.144;2023-02-10T00:27:09;101653.84;;;-0.35;49.64
36664;BME280;53333;51.976;20.144;2023-02-10T00:29:42;101659.91;;;-0.40;49.62
36664;BME280;53333;51.976;20.144;2023-02-10T00:32:17;101647.63;;;-0.41;49.78
36664;BME280;53333;51.976;20.144;2023-02-10T00:34:50;101651.09;;;-0.42;49.86
36664;BME280;53333;51.976;20.144;2023-02-10T00:37:23;101649.31;;;-0.44;50.01
36664;BME280;53333;51.976;20.144;2023-02-10T00:39:56;101648.41;;;-0.45;50.13
36664;BME280;53333;51.976;20.144;2023-02-10T00:42:31;101651.91;;;-0.46;50.09
36664;BME280;53333;51.976;20.144;2023-02-10T00:45:05;101644.00;;;-0.47;50.31
36664;BME280;53333;51.976;20.144;2023-02-10T00:47:40;101646.56;;;-0.50;50.35
36664;BME280;53333;51.976;20.144;2023-02-10T00:50:13;101645.69;;;-0.51;50.27
36664;BME280;53333;51.976;20.144;2023-02-10T00:52:46;101646.50;;;-0.52;50.19
36664;BME280;53333;51.976;20.144;2023-02-10T00:55:19;101650.84;;;-0.54;50.44
36664;BME280;53333;51.976;20.144;2023-02-10T00:57:52;101648.16;;;-0.57;50.43
36664;BME280;53333;51.976;20.144;2023-02-10T01:00:25;101645.53;;;-0.57;50.49
36664;BME280;53333;51.976;20.144;2023-02-10T01:02:59;101638.47;;;-0.60;50.70
36664;BME280;53333;51.976;20.144;2023-02-10T01:05:33;101641.03;;;-0.63;50.79
36664;BME280;53333;51.976;20.144;2023-02-10T01:08:06;101641.03;;;-0.63;50.68
36664;BME280;53333;51.976;20.144;2023-02-10T01:10:39;101635.72;;;-0.66;50.80
36664;BME280;53333;51.976;20.144;2023-02-10T01:13:13;101628.72;;;-0.67;50.96
36664;BME280;53333;51.976;20.144;2023-02-10T01:15:47;101633.91;;;-0.70;50.78
36664;BME280;53333;51.976;20.144;2023-02-10T01:18:21;101635.59;;;-0.72;50.88
36664;BME280;53333;51.976;20.144;2023-02-10T01:20:54;101632.06;;;-0.74;50.99
36664;BME280;53333;51.976;20.144;2023-02-10T01:23:27;101635.53;;;-0.75;50.99
36664;BME280;53333;51.976;20.144;2023-02-10T01:26:02;101627.63;;;-0.77;51.07
36664;BME280;53333;51.976;20.144;2023-02-10T01:28:36;101623.25;;;-0.78;51.18
36664;BME280;53333;51.976;20.144;2023-02-10T01:31:10;101612.94;;;-0.68;50.42
36664;BME280;53333;51.976;20.144;2023-02-10T01:33:45;101627.56;;;-0.81;50.75
36664;BME280;53333;51.976;20.144;2023-02-10T01:36:21;101627.53;;;-0.83;50.95
36664;BME280;53333;51.976;20.144;2023-02-10T01:38:54;101621.28;;;-0.86;50.93
36664;BME280;53333;51.976;20.144;2023-02-10T01:41:27;101626.50;;;-0.88;51.04
36664;BME280;53333;51.976;20.144;2023-02-10T01:44:03;101623.81;;;-0.91;51.32
36664;BME280;53333;51.976;20.144;2023-02-10T01:46:36;101622.03;;;-0.94;51.32
36664;BME280;53333;51.976;20.144;2023-02-10T01:49:14;101617.63;;;-0.95;51.33
36664;BME280;53333;51.976;20.144;2023-02-10T01:51:51;101612.34;;;-0.96;51.56
36664;BME280;53333;51.976;20.144;2023-02-10T01:54:29;101614.91;;;-0.99;51.59
36664;BME280;53333;51.976;20.144;2023-02-10T01:57:03;101608.75;;;-1.01;51.69
36664;BME280;53333;51.976;20.144;2023-02-10T01:59:37;101604.56;;;-0.92;50.82
36664;BME280;53333;51.976;20.144;2023-02-10T02:02:12;101609.56;;;-1.04;51.11
36664;BME280;53333;51.976;20.144;2023-02-10T02:04:49;101607.72;;;-1.08;51.34
36664;BME280;53333;51.976;20.144;2023-02-10T02:07:28;101611.16;;;-1.11;51.64
36664;BME280;53333;51.976;20.144;2023-02-10T02:10:03;101606.75;;;-1.13;51.66
36664;BME280;53333;51.976;20.144;2023-02-10T02:12:41;101612.88;;;-1.13;51.82
36664;BME280;53333;51.976;20.144;2023-02-10T02:15:22;101604.09;;;-1.15;51.84
36664;BME280;53333;51.976;20.144;2023-02-10T02:18:03;101599.69;;;-1.16;51.86
36664;BME280;53333;51.976;20.144;2023-02-10T02:20:59;101601.50;;;-1.13;51.90
36664;BME280;53333;51.976;20.144;2023-02-10T02:23:56;101605.84;;;-1.14;51.81
36664;BME280;53333;51.976;20.144;2023-02-10T02:26:58;101602.34;;;-1.14;51.64
36664;BME280;53333;51.976;20.144;2023-02-10T02:33:02;101599.50;;;-1.23;51.93
36664;BME280;53333;51.976;20.144;2023-02-10T02:35:42;101607.31;;;-1.26;52.11
36664;BME280;53333;51.976;20.144;2023-02-10T02:38:17;101602.03;;;-1.28;52.06
36664;BME280;53333;51.976;20.144;2023-02-10T02:40:50;101603.78;;;-1.29;52.03
36664;BME280;53333;51.976;20.144;2023-02-10T02:43:23;101595.84;;;-1.32;52.25
36664;BME280;53333;51.976;20.144;2023-02-10T02:46:02;101601.84;;;-1.36;52.39
36664;BME280;53333;51.976;20.144;2023-02-10T02:48:56;101609.72;;;-1.36;52.32
36664;BME280;53333;51.976;20.144;2023-02-10T02:51:39;101607.88;;;-1.40;52.33
36664;BME280;53333;51.976;20.144;2023-02-10T02:54:20;101613.91;;;-1.44;52.50
36664;BME280;53333;51.976;20.144;2023-02-10T02:57:03;101624.38;;;-1.44;52.56
36664;BME280;53333;51.976;20.144;2023-02-10T02:59:43;101626.94;;;-1.47;52.64
36664;BME280;53333;51.976;20.144;2023-02-10T03:02:19;101626.97;;;-1.46;52.58
36664;BME280;53333;51.976;20.144;2023-02-10T03:04:56;101625.22;;;-1.47;52.69
36664;BME280;53333;51.976;20.144;2023-02-10T03:07:29;101625.22;;;-1.47;52.66
36664;BME280;53333;51.976;20.144;2023-02-10T03:10:06;101615.63;;;-1.44;52.71
36664;BME280;53333;51.976;20.144;2023-02-10T03:12:39;101618.34;;;-1.41;52.73
36664;BME280;53333;51.976;20.144;2023-02-10T03:15:12;101619.28;;;-1.38;52.65
36664;BME280;53333;51.976;20.144;2023-02-10T03:17:45;101610.66;;;-1.34;52.49
36664;BME280;53333;51.976;20.144;2023-02-10T03:20:20;101608.06;;;-1.32;52.64
36664;BME280;53333;51.976;20.144;2023-02-10T03:22:53;101609.84;;;-1.30;52.44
36664;BME280;53333;51.976;20.144;2023-02-10T03:25:26;101593.22;;;-1.32;52.64
36664;BME280;53333;51.976;20.144;2023-02-10T03:27:59;101603.66;;;-1.33;52.75
36664;BME280;53333;51.976;20.144;2023-02-10T03:30:33;101604.47;;;-1.36;52.56
36664;BME280;53333;51.976;20.144;2023-02-10T03:33:06;101609.06;;;-1.27;52.07
36664;BME280;53333;51.976;20.144;2023-02-10T03:35:41;101595.63;;;-1.41;52.50
36664;BME280;53333;51.976;20.144;2023-02-10T03:38:15;101601.66;;;-1.45;52.45
36664;BME280;53333;51.976;20.144;2023-02-10T03:40:49;101596.34;;;-1.48;52.71
36664;BME280;53333;51.976;20.144;2023-02-10T03:43:22;101600.69;;;-1.49;52.84
36664;BME280;53333;51.976;20.144;2023-02-10T03:45:59;101597.97;;;-1.52;52.92
36664;BME280;53333;51.976;20.144;2023-02-10T03:48:32;101591.81;;;-1.54;52.99
36664;BME280;53333;51.976;20.144;2023-02-10T03:51:07;101598.84;;;-1.53;52.81
36664;BME280;53333;51.976;20.144;2023-02-10T03:53:40;101599.75;;;-1.51;52.99
36664;BME280;53333;51.976;20.144;2023-02-10T03:56:13;101607.63;;;-1.51;52.97
36664;BME280;53333;51.976;20.144;2023-02-10T03:58:49;101600.69;;;-1.49;53.05
36664;BME280;53333;51.976;20.144;2023-02-10T04:01:22;101599.00;;;-1.47;53.15
36664;BME280;53333;51.976;20.144;2023-02-10T04:03:58;101615.63;;;-1.44;53.03
36664;BME280;53333;51.976;20.144;2023-02-10T04:06:32;101601.69;;;-1.43;53.19
36664;BME280;53333;51.976;20.144;2023-02-10T04:09:05;101599.97;;;-1.41;53.00
36664;BME280;53333;51.976;20.144;2023-02-10T04:11:38;101604.44;;;-1.37;53.01
36664;BME280;53333;51.976;20.144;2023-02-10T04:14:11;101612.34;;;-1.36;53.09
36664;BME280;53333;51.976;20.144;2023-02-10T04:16:44;101612.41;;;-1.33;52.95
36664;BME280;53333;51.976;20.144;2023-02-10T04:19:17;101613.31;;;-1.32;52.96
36664;BME280;53333;51.976;20.144;2023-02-10T04:21:53;101618.56;;;-1.32;53.01
36664;BME280;53333;51.976;20.144;2023-02-10T04:24:26;101615.94;;;-1.32;52.91
36664;BME280;53333;51.976;20.144;2023-02-10T04:26:59;101608.06;;;-1.32;52.98
36664;BME280;53333;51.976;20.144;2023-02-10T04:29:32;101609.81;;;-1.31;53.04
36664;BME280;53333;51.976;20.144;2023-02-10T04:32:10;101622.13;;;-1.29;52.99
36664;BME280;53333;51.976;20.144;2023-02-10T04:34:43;101615.13;;;-1.28;53.16
36664;BME280;53333;51.976;20.144;2023-02-10T04:37:18;101608.97;;;-1.30;53.28
36664;BME280;53333;51.976;20.144;2023-02-10T04:39:51;101609.91;;;-1.28;53.29
36664;BME280;53333;51.976;20.144;2023-02-10T04:42:23;101604.69;;;-1.26;53.23
36664;BME280;53333;51.976;20.144;2023-02-10T04:45:01;101612.63;;;-1.23;53.03
36664;BME280;53333;51.976;20.144;2023-02-10T04:47:34;101613.59;;;-1.18;53.10
36664;BME280;53333;51.976;20.144;2023-02-10T04:50:08;101610.28;;;-1.11;53.13
36664;BME280;53333;51.976;20.144;2023-02-10T04:52:42;101615.75;;;-1.02;53.16
36664;BME280;53333;51.976;20.144;2023-02-10T04:55:15;101604.56;;;-0.92;52.85
36664;BME280;53333;51.976;20.144;2023-02-10T04:57:48;101596.06;;;-0.81;52.98
36664;BME280;53333;51.976;20.144;2023-02-10T05:00:21;101590.97;;;-0.72;52.77
36664;BME280;53333;51.976;20.144;2023-02-10T05:02:54;101593.81;;;-0.61;52.56
36664;BME280;53333;51.976;20.144;2023-02-10T05:05:27;101587.81;;;-0.56;52.53
36664;BME280;53333;51.976;20.144;2023-02-10T05:08:01;101601.94;;;-0.49;52.48
36664;BME280;53333;51.976;20.144;2023-02-10T05:10:34;101590.63;;;-0.45;52.49
36664;BME280;53333;51.976;20.144;2023-02-10T05:13:07;101588.97;;;-0.41;52.41
36664;BME280;53333;51.976;20.144;2023-02-10T05:15:40;101581.97;;;-0.41;52.30
36664;BME280;53333;51.976;20.144;2023-02-10T05:18:13;101583.75;;;-0.40;52.33
36664;BME280;53333;51.976;20.144;2023-02-10T05:20:46;101582.03;;;-0.38;52.46
36664;BME280;53333;51.976;20.144;2023-02-10T05:23:21;101583.88;;;-0.33;52.55
36664;BME280;53333;51.976;20.144;2023-02-10T05:25:53;101586.59;;;-0.26;52.33
36664;BME280;53333;51.976;20.144;2023-02-10T05:28:26;101583.22;;;-0.20;52.21
36664;BME280;53333;51.976;20.144;2023-02-10T05:31:00;101592.06;;;-0.15;52.29
36664;BME280;53333;51.976;20.144;2023-02-10T05:33:33;101603.50;;;-0.11;52.17
36664;BME280;53333;51.976;20.144;2023-02-10T05:36:07;101606.19;;;-0.08;52.28
36664;BME280;53333;51.976;20.144;2023-02-10T05:38:42;101606.22;;;-0.07;52.31
36664;BME280;53333;51.976;20.144;2023-02-10T05:41:35;101612.44;;;-0.03;52.20
36664;BME280;53333;51.976;20.144;2023-02-10T05:44:08;101612.47;;;-0.02;52.17
36664;BME280;53333;51.976;20.144;2023-02-10T05:46:41;101614.22;;;-0.01;52.10
36664;BME280;53333;51.976;20.144;2023-02-10T05:49:15;101627.34;;;-0.01;52.42
36664;BME280;53333;51.976;20.144;2023-02-10T05:51:48;101639.63;;;-0.01;52.38
36664;BME280;53333;51.976;20.144;2023-02-10T05:54:24;101622.94;;;-0.03;52.42
36664;BME280;53333;51.976;20.144;2023-02-10T05:56:57;101629.91;;;-0.04;52.51
36664;BME280;53333;51.976;20.144;2023-02-10T05:59:30;101627.28;;;-0.04;52.23
36664;BME280;53333;51.976;20.144;2023-02-10T06:02:03;101622.09;;;-0.01;52.61
36664;BME280;53333;51.976;20.144;2023-02-10T06:04:37;101628.25;;;0.02;52.54
36664;BME280;53333;51.976;20.144;2023-02-10T06:07:10;101619.59;;;0.06;52.67
36664;BME280;53333;51.976;20.144;2023-02-10T06:09:44;101638.00;;;0.07;52.53
36664;BME280;53333;51.976;20.144;2023-02-10T06:12:18;101635.41;;;0.09;52.73
36664;BME280;53333;51.976;20.144;2023-02-10T06:14:51;101639.81;;;0.10;52.69
36664;BME280;53333;51.976;20.144;2023-02-10T06:17:24;101636.31;;;0.11;52.62
36664;BME280;53333;51.976;20.144;2023-02-10T06:19:57;101642.50;;;0.13;52.67
36664;BME280;53333;51.976;20.144;2023-02-10T06:22:30;101634.59;;;0.11;52.84
36664;BME280;53333;51.976;20.144;2023-02-10T06:25:07;101639.88;;;0.13;53.23
36664;BME280;53333;51.976;20.144;2023-02-10T06:27:40;101636.38;;;0.14;53.03
36664;BME280;53333;51.976;20.144;2023-02-10T06:30:14;101638.13;;;0.13;53.37
36664;BME280;53333;51.976;20.144;2023-02-10T06:32:47;101641.63;;;0.14;53.22
36664;BME280;53333;51.976;20.144;2023-02-10T06:35:20;101644.31;;;0.17;53.10
36664;BME280;53333;51.976;20.144;2023-02-10T06:37:53;101642.56;;;0.19;53.27
36664;BME280;53333;51.976;20.144;2023-02-10T06:40:27;101643.47;;;0.20;53.43
36664;BME280;53333;51.976;20.144;2023-02-10T06:43:00;101648.78;;;0.23;53.44
36664;BME280;53333;51.976;20.144;2023-02-10T06:45:33;101647.03;;;0.23;53.44
36664;BME280;53333;51.976;20.144;2023-02-10T06:48:06;101647.06;;;0.25;53.52
36664;BME280;53333;51.976;20.144;2023-02-10T06:50:39;101640.06;;;0.25;53.44
36664;BME280;53333;51.976;20.144;2023-02-10T06:53:12;101631.31;;;0.26;53.54
36664;BME280;53333;51.976;20.144;2023-02-10T06:55:47;101633.97;;;0.28;53.87
36664;BME280;53333;51.976;20.144;2023-02-10T06:58:20;101636.66;;;0.31;53.66
36664;BME280;53333;51.976;20.144;2023-02-10T07:00:53;101644.56;;;0.31;53.96
36664;BME280;53333;51.976;20.144;2023-02-10T07:03:26;101648.94;;;0.32;53.86
36664;BME280;53333;51.976;20.144;2023-02-10T07:05:59;101645.44;;;0.33;54.00
36664;BME280;53333;51.976;20.144;2023-02-10T07:08:32;101647.22;;;0.32;54.07
36664;BME280;53333;51.976;20.144;2023-02-10T07:11:07;101655.13;;;0.34;54.13
36664;BME280;53333;51.976;20.144;2023-02-10T07:13:40;101653.41;;;0.38;54.16
36664;BME280;53333;51.976;20.144;2023-02-10T07:16:14;101657.00;;;0.43;54.03
36664;BME280;53333;51.976;20.144;2023-02-10T07:18:48;101659.69;;;0.46;54.05
36664;BME280;53333;51.976;20.144;2023-02-10T07:21:21;101664.16;;;0.50;54.16
36664;BME280;53333;51.976;20.144;2023-02-10T07:23:54;101669.50;;;0.56;54.06
36664;BME280;53333;51.976;20.144;2023-02-10T07:26:29;101661.69;;;0.62;54.05
36664;BME280;53333;51.976;20.144;2023-02-10T07:29:02;101675.88;;;0.70;53.86
36664;BME280;53333;51.976;20.144;2023-02-10T07:31:35;101669.84;;;0.78;54.07
36664;BME280;53333;51.976;20.144;2023-02-10T07:34:08;101662.94;;;0.86;53.92
36664;BME280;53333;51.976;20.144;2023-02-10T07:36:41;101662.22;;;0.95;54.01
36664;BME280;53333;51.976;20.144;2023-02-10T07:39:14;101664.06;;;1.03;54.00
36664;BME280;53333;51.976;20.144;2023-02-10T07:41:49;101670.31;;;1.10;54.04
36664;BME280;53333;51.976;20.144;2023-02-10T07:44:25;101668.66;;;1.15;53.86
36664;BME280;53333;51.976;20.144;2023-02-10T07:46:58;101664.31;;;1.19;53.94
36664;BME280;53333;51.976;20.144;2023-02-10T07:49:31;101660.00;;;1.27;53.91
36664;BME280;53333;51.976;20.144;2023-02-10T07:52:04;101665.47;;;1.39;53.66
36664;BME280;53333;51.976;20.144;2023-02-10T07:54:37;101663.84;;;1.51;53.56
36664;BME280;53333;51.976;20.144;2023-02-10T07:57:11;101669.19;;;1.57;53.59
36664;BME280;53333;51.976;20.144;2023-02-10T07:59:44;101665.69;;;1.59;53.50
36664;BME280;53333;51.976;20.144;2023-02-10T08:02:17;101666.63;;;1.63;53.60
36664;BME280;53333;51.976;20.144;2023-02-10T08:04:52;101668.41;;;1.66;53.73
36664;BME280;53333;51.976;20.144;2023-02-10T08:07:27;101670.22;;;1.71;53.54
36664;BME280;53333;51.976;20.144;2023-02-10T08:10:00;101671.25;;;1.83;53.47
36664;BME280;53333;51.976;20.144;2023-02-10T08:12:35;101661.63;;;1.89;53.50
36664;BME280;53333;51.976;20.144;2023-02-10T08:15:08;101659.13;;;2.02;53.44
36664;BME280;53333;51.976;20.144;2023-02-10T08:17:41;101644.28;;;2.11;53.17
36664;BME280;53333;51.976;20.144;2023-02-10T08:20:15;101635.72;;;2.34;52.95
36664;BME280;53333;51.976;20.144;2023-02-10T08:22:48;101639.47;;;2.64;52.63
36664;BME280;53333;51.976;20.144;2023-02-10T08:27:59;101642.47;;;3.18;51.91
36664;BME280;53333;51.976;20.144;2023-02-10T08:30:32;101648.72;;;3.46;51.60
36664;BME280;53333;51.976;20.144;2023-02-10T08:33:05;101651.44;;;3.61;51.46
36664;BME280;53333;51.976;20.144;2023-02-10T08:35:39;101655.84;;;3.62;51.54
36664;BME280;53333;51.976;20.144;2023-02-10T08:38:12;101650.53;;;3.56;51.51
36664;BME280;53333;51.976;20.144;2023-02-10T08:40:53;101653.16;;;3.47;51.62
36664;BME280;53333;51.976;20.144;2023-02-10T08:43:28;101652.22;;;3.39;51.71
36664;BME280;53333;51.976;20.144;2023-02-10T08:46:02;101656.59;;;3.31;52.00
36664;BME280;53333;51.976;20.144;2023-02-10T08:48:35;101665.34;;;3.23;52.14
36664;BME280;53333;51.976;20.144;2023-02-10T08:51:11;101660.03;;;3.16;52.21
36664;BME280;53333;51.976;20.144;2023-02-10T08:53:44;101662.63;;;3.05;52.39
36664;BME280;53333;51.976;20.144;2023-02-10T08:56:18;101659.03;;;2.92;52.67
36664;BME280;53333;51.976;20.144;2023-02-10T08:58:52;101662.53;;;2.89;52.24
36664;BME280;53333;51.976;20.144;2023-02-10T09:01:25;101670.28;;;2.71;52.71
36664;BME280;53333;51.976;20.144;2023-02-10T09:04:01;101666.72;;;2.63;52.92
36664;BME280;53333;51.976;20.144;2023-02-10T09:06:35;101671.94;;;2.58;53.15
36664;BME280;53333;51.976;20.144;2023-02-10T09:09:14;101687.72;;;2.52;53.45
36664;BME280;53333;51.976;20.144;2023-02-10T09:11:47;101678.91;;;2.48;53.51
36664;BME280;53333;51.976;20.144;2023-02-10T09:14:22;101684.19;;;2.48;53.69
36664;BME280;53333;51.976;20.144;2023-02-10T09:16:55;101691.22;;;2.48;53.52
36664;BME280;53333;51.976;20.144;2023-02-10T09:19:28;101686.78;;;2.44;53.80
36664;BME280;53333;51.976;20.144;2023-02-10T09:22:02;101692.00;;;2.39;54.06
36664;BME280;53333;51.976;20.144;2023-02-10T09:24:35;101708.69;;;2.35;53.99
36664;BME280;53333;51.976;20.144;2023-02-10T09:27:08;101706.84;;;2.28;54.13
36664;BME280;53333;51.976;20.144;2023-02-10T09:29:42;101712.97;;;2.24;54.48
36664;BME280;53333;51.976;20.144;2023-02-10T09:32:15;101702.44;;;2.24;54.57
36664;BME280;53333;51.976;20.144;2023-02-10T09:34:48;101706.81;;;2.25;54.67
36664;BME280;53333;51.976;20.144;2023-02-10T09:37:22;101706.84;;;2.28;54.66
36664;BME280;53333;51.976;20.144;2023-02-10T09:39:55;101697.34;;;2.44;53.83
36664;BME280;53333;51.976;20.144;2023-02-10T09:42:38;101700.88;;;2.44;54.41
36664;BME280;53333;51.976;20.144;2023-02-10T09:45:19;101704.50;;;2.57;54.42
36664;BME280;53333;51.976;20.144;2023-02-10T09:48:00;101694.91;;;2.67;54.25
36664;BME280;53333;51.976;20.144;2023-02-10T09:50:46;101702.03;;;2.80;54.32
36664;BME280;53333;51.976;20.144;2023-02-10T09:53:23;101695.97;;;2.92;54.11
36664;BME280;53333;51.976;20.144;2023-02-10T09:56:01;101701.28;;;3.00;54.10
36664;BME280;53333;51.976;20.144;2023-02-10T09:58:36;101702.22;;;3.05;54.16
36664;BME280;53333;51.976;20.144;2023-02-10T10:01:18;101698.72;;;3.09;54.14
36664;BME280;53333;51.976;20.144;2023-02-10T10:03:56;101698.72;;;3.11;54.23
36664;BME280;53333;51.976;20.144;2023-02-10T10:06:32;101700.50;;;3.10;54.32
36664;BME280;53333;51.976;20.144;2023-02-10T10:09:16;101709.28;;;3.11;54.64
36664;BME280;53333;51.976;20.144;2023-02-10T10:11:52;101711.06;;;3.10;54.60
36664;BME280;53333;51.976;20.144;2023-02-10T10:14:28;101704.03;;;3.12;54.74
36664;BME280;53333;51.976;20.144;2023-02-10T10:17:14;101703.19;;;3.15;54.74
36664;BME280;53333;51.976;20.144;2023-02-10T10:20:03;101712.81;;;3.13;54.82
36664;BME280;53333;51.976;20.144;2023-02-10T10:22:53;101710.19;;;3.13;54.73
36664;BME280;53333;51.976;20.144;2023-02-10T10:25:43;101712.81;;;3.13;54.78
36664;BME280;53333;51.976;20.144;2023-02-10T10:28:29;101705.81;;;3.15;55.09
36664;BME280;53333;51.976;20.144;2023-02-10T10:31:09;101709.31;;;3.15;55.12
36664;BME280;53333;51.976;20.144;2023-02-10T10:33:50;101711.09;;;3.16;55.22
36664;BME280;53333;51.976;20.144;2023-02-10T10:36:32;101710.22;;;3.17;55.27
36664;BME280;53333;51.976;20.144;2023-02-10T10:39:13;101713.78;;;3.21;55.28
36664;BME280;53333;51.976;20.144;2023-02-10T10:41:47;101703.22;;;3.21;55.33
36664;BME280;53333;51.976;20.144;2023-02-10T10:44:24;101703.19;;;3.18;55.53
36664;BME280;53333;51.976;20.144;2023-02-10T10:47:05;101699.63;;;3.13;55.70
36664;BME280;53333;51.976;20.144;2023-02-10T10:49:41;101696.94;;;3.05;55.89
36664;BME280;53333;51.976;20.144;2023-02-10T10:52:28;101710.97;;;2.99;55.98
36664;BME280;53333;51.976;20.144;2023-02-10T10:55:07;101724.13;;;2.91;56.29
36664;BME280;53333;51.976;20.144;2023-02-10T10:57:43;101717.09;;;2.92;56.15
36664;BME280;53333;51.976;20.144;2023-02-10T11:00:20;101714.47;;;2.95;56.27
36664;BME280;53333;51.976;20.144;2023-02-10T11:02:56;101718.00;;;2.96;56.31
36664;BME280;53333;51.976;20.144;2023-02-10T11:05:33;101712.75;;;3.00;56.43
36664;BME280;53333;51.976;20.144;2023-02-10T11:08:07;101719.81;;;3.04;56.42
36664;BME280;53333;51.976;20.144;2023-02-10T11:10:56;101723.38;;;3.08;56.54
36664;BME280;53333;51.976;20.144;2023-02-10T11:13:31;101717.22;;;3.11;56.50
36664;BME280;53333;51.976;20.144;2023-02-10T11:16:08;101719.00;;;3.13;56.70
36664;BME280;53333;51.976;20.144;2023-02-10T11:18:51;101717.25;;;3.15;56.79
36664;BME280;53333;51.976;20.144;2023-02-10T11:21:34;101711.97;;;3.17;56.73
36664;BME280;53333;51.976;20.144;2023-02-10T11:24:20;101705.81;;;3.16;56.66
36664;BME280;53333;51.976;20.144;2023-02-10T11:26:59;101715.47;;;3.14;56.70
36664;BME280;53333;51.976;20.144;2023-02-10T11:29:34;101724.31;;;3.16;56.89
36664;BME280;53333;51.976;20.144;2023-02-10T11:32:34;101732.22;;;3.16;56.86
36664;BME280;53333;51.976;20.144;2023-02-10T11:35:16;101725.16;;;3.14;56.92
36664;BME280;53333;51.976;20.144;2023-02-10T11:37:53;101726.88;;;3.07;57.32
36664;BME280;53333;51.976;20.144;2023-02-10T11:40:29;101732.16;;;3.05;57.26
36664;BME280;53333;51.976;20.144;2023-02-10T11:43:05;101723.34;;;3.02;57.40
36664;BME280;53333;51.976;20.144;2023-02-10T11:45:51;101723.34;;;3.05;57.43
36664;BME280;53333;51.976;20.144;2023-02-10T11:48:31;101723.34;;;3.05;57.46
36664;BME280;53333;51.976;20.144;2023-02-10T11:51:14;101715.47;;;3.13;57.38
36664;BME280;53333;51.976;20.144;2023-02-10T11:53:51;101719.88;;;3.15;57.42
36664;BME280;53333;51.976;20.144;2023-02-10T11:56:29;101725.19;;;3.18;57.47
36664;BME280;53333;51.976;20.144;2023-02-10T11:59:30;101716.41;;;3.19;57.35
36664;BME280;53333;51.976;20.144;2023-02-10T12:02:15;101716.41;;;3.19;57.25
36664;BME280;53333;51.976;20.144;2023-02-10T12:05:02;101712.03;;;3.23;57.20
36664;BME280;53333;51.976;20.144;2023-02-10T12:07:51;101719.94;;;3.21;57.45
36664;BME280;53333;51.976;20.144;2023-02-10T12:10:34;101726.97;;;3.19;57.38
36664;BME280;53333;51.976;20.144;2023-02-10T12:13:21;101723.38;;;3.14;57.50
36664;BME280;53333;51.976;20.144;2023-02-10T12:16:06;101726.91;;;3.12;57.51
36664;BME280;53333;51.976;20.144;2023-02-10T12:18:53;101740.13;;;3.12;57.44
36664;BME280;53333;51.976;20.144;2023-02-10T12:21:43;101744.50;;;3.11;57.64
36664;BME280;53333;51.976;20.144;2023-02-10T12:24:30;101736.59;;;3.13;57.67
36664;BME280;53333;51.976;20.144;2023-02-10T12:27:14;101741.88;;;3.13;57.65
36664;BME280;53333;51.976;20.144;2023-02-10T12:29:59;101737.50;;;3.13;57.58
36664;BME280;53333;51.976;20.144;2023-02-10T12:32:42;101739.25;;;3.14;57.53
36664;BME280;53333;51.976;20.144;2023-02-10T12:35:28;101743.66;;;3.17;57.62
36664;BME280;53333;51.976;20.144;2023-02-10T12:38:16;101742.78;;;3.16;57.66
36664;BME280;53333;51.976;20.144;2023-02-10T12:41:06;101741.03;;;3.17;57.78
36664;BME280;53333;51.976;20.144;2023-02-10T12:44:02;101741.03;;;3.18;57.67
36664;BME280;53333;51.976;20.144;2023-02-10T12:46:45;101743.66;;;3.15;57.67
36664;BME280;53333;51.976;20.144;2023-02-10T12:49:33;101744.53;;;3.16;57.67
36664;BME280;53333;51.976;20.144;2023-02-10T12:52:13;101733.13;;;3.18;57.67
36664;BME280;53333;51.976;20.144;2023-02-10T12:54:51;101739.28;;;3.20;57.84
36664;BME280;53333;51.976;20.144;2023-02-10T12:57:29;101730.50;;;3.21;57.85
36664;BME280;53333;51.976;20.144;2023-02-10T13:00:13;101746.34;;;3.21;57.90
36664;BME280;53333;51.976;20.144;2023-02-10T13:02:54;101750.75;;;3.19;57.87
36664;BME280;53333;51.976;20.144;2023-02-10T13:05:33;101740.16;;;3.16;57.98
36664;BME280;53333;51.976;20.144;2023-02-10T13:08:11;101734.88;;;3.15;58.12
36664;BME280;53333;51.976;20.144;2023-02-10T13:10:48;101749.78;;;3.11;58.11
36664;BME280;53333;51.976;20.144;2023-02-10T13:13:25;101751.53;;;3.07;58.16
36664;BME280;53333;51.976;20.144;2023-02-10T13:16:03;101748.88;;;3.07;58.29
36664;BME280;53333;51.976;20.144;2023-02-10T13:18:45;101748.00;;;3.05;58.33
36664;BME280;53333;51.976;20.144;2023-02-10T13:21:26;101755.94;;;3.07;58.39
36664;BME280;53333;51.976;20.144;2023-02-10T13:24:06;101755.06;;;3.08;58.54
36664;BME280;53333;51.976;20.144;2023-02-10T13:26:59;101749.78;;;3.08;58.33
36664;BME280;53333;51.976;20.144;2023-02-10T13:29:40;101758.53;;;3.04;58.58
36664;BME280;53333;51.976;20.144;2023-02-10T13:32:29;101750.59;;;3.02;58.56
36664;BME280;53333;51.976;20.144;2023-02-10T13:35:13;101759.38;;;3.00;58.87
36664;BME280;53333;51.976;20.144;2023-02-10T13:37:49;101766.44;;;2.99;58.76
36664;BME280;53333;51.976;20.144;2023-02-10T13:40:27;101755.88;;;3.01;58.69